sensor_id;sensor_type;location;lat;lon;timestamp;P1;durP1;ratioP1;P2;durP2;ratioP2
3733;SDS011;1882;52.256;8.874;2023-12-20T00:00:29;15.00;;;6.60;;
3733;SDS011;1882;52.256;8.874;2023-12-20T00:02:59;18.10;;;6.77;;
3733;SDS011;1882;52.256;8.874;2023-12-20T00:05:29;14.30;;;6.10;;
3733;SDS011;1882;52.256;8.874;2023-12-20T00:07:58;16.40;;;5.80;;
3733;SDS011;1882;52.256;8.874;2023-12-20T00:10:28;20.00;;;7.03;;
3733;SDS011;1882;52.256;8.874;2023-12-20T00:12:54;14.23;;;6.40;;
3733;SDS011;1882;52.256;8.874;2023-12-20T00:15:31;13.43;;;6.30;;
3733;SDS011;1882;52.256;8.874;2023-12-20T00:17:58;11.90;;;4.93;;
3733;SDS011;1882;52.256;8.874;2023-12-20T00:20:25;18.70;;;4.70;;
3733;SDS011;1882;52.256;8.874;2023-12-20T00:22:57;16.97;;;5.30;;
3733;SDS011;1882;52.256;8.874;2023-12-20T00:25:31;20.50;;;4.17;;
3733;SDS011;1882;52.256;8.874;2023-12-20T00:27:58;11.37;;;4.20;;
3733;SDS011;1882;52.256;8.874;2023-12-20T00:30:28;18.97;;;4.90;;
3733;SDS011;1882;52.256;8.874;2023-12-20T00:32:57;14.43;;;4.20;;
3733;SDS011;1882;52.256;8.874;2023-12-20T00:35:24;13.70;;;4.33;;
3733;SDS011;1882;52.256;8.874;2023-12-20T00:37:52;7.33;;;3.80;;
3733;SDS011;1882;52.256;8.874;2023-12-20T00:40:18;10.70;;;4.10;;
3733;SDS011;1882;52.256;8.874;2023-12-20T00:42:45;11.87;;;4.27;;
3733;SDS011;1882;52.256;8.874;2023-12-20T00:45:14;10.10;;;4.50;;
3733;SDS011;1882;52.256;8.874;2023-12-20T00:47:41;12.40;;;4.30;;
3733;SDS011;1882;52.256;8.874;2023-12-20T00:50:08;23.57;;;5.30;;
3733;SDS011;1882;52.256;8.874;2023-12-20T00:52:36;11.00;;;3.50;;
3733;SDS011;1882;52.256;8.874;2023-12-20T00:55:03;13.67;;;4.40;;
3733;SDS011;1882;52.256;8.874;2023-12-20T00:57:33;13.20;;;4.10;;
3733;SDS011;1882;52.256;8.874;2023-12-20T00:59:59;13.40;;;4.77;;
3733;SDS011;1882;52.256;8.874;2023-12-20T01:02:26;9.43;;;3.60;;
3733;SDS011;1882;52.256;8.874;2023-12-20T01:04:53;10.23;;;4.00;;
3733;SDS011;1882;52.256;8.874;2023-12-20T01:07:20;17.27;;;4.20;;
3733;SDS011;1882;52.256;8.874;2023-12-20T01:09:49;7.70;;;3.50;;
3733;SDS011;1882;52.256;8.874;2023-12-20T01:12:16;9.87;;;3.70;;
3733;SDS011;1882;52.256;8.874;2023-12-20T01:14:43;14.33;;;3.20;;
3733;SDS011;1882;52.256;8.874;2023-12-20T01:17:09;16.17;;;3.60;;
3733;SDS011;1882;52.256;8.874;2023-12-20T01:19:36;10.93;;;3.07;;
3733;SDS011;1882;52.256;8.874;2023-12-20T01:22:30;14.13;;;3.13;;
3733;SDS011;1882;52.256;8.874;2023-12-20T01:24:57;9.37;;;3.30;;
3733;SDS011;1882;52.256;8.874;2023-12-20T01:27:24;10.27;;;3.30;;
3733;SDS011;1882;52.256;8.874;2023-12-20T01:29:51;8.87;;;2.87;;
3733;SDS011;1882;52.256;8.874;2023-12-20T01:32:21;12.47;;;2.90;;
3733;SDS011;1882;52.256;8.874;2023-12-20T01:34:47;15.67;;;3.20;;
3733;SDS011;1882;52.256;8.874;2023-12-20T01:37:15;15.00;;;2.70;;
3733;SDS011;1882;52.256;8.874;2023-12-20T01:39:41;14.13;;;2.43;;
3733;SDS011;1882;52.256;8.874;2023-12-20T01:42:08;10.80;;;3.07;;
3733;SDS011;1882;52.256;8.874;2023-12-20T01:44:35;10.73;;;3.00;;
3733;SDS011;1882;52.256;8.874;2023-12-20T01:47:04;10.13;;;2.67;;
3733;SDS011;1882;52.256;8.874;2023-12-20T01:49:33;9.70;;;2.40;;
3733;SDS011;1882;52.256;8.874;2023-12-20T01:51:59;7.30;;;2.50;;
3733;SDS011;1882;52.256;8.874;2023-12-20T01:54:26;12.37;;;2.60;;
3733;SDS011;1882;52.256;8.874;2023-12-20T01:57:09;5.87;;;2.50;;
3733;SDS011;1882;52.256;8.874;2023-12-20T01:59:39;10.53;;;2.70;;
3733;SDS011;1882;52.256;8.874;2023-12-20T02:02:09;10.30;;;2.13;;
3733;SDS011;1882;52.256;8.874;2023-12-20T02:04:38;6.67;;;2.77;;
3733;SDS011;1882;52.256;8.874;2023-12-20T02:07:05;8.47;;;2.60;;
3733;SDS011;1882;52.256;8.874;2023-12-20T02:09:32;6.50;;;2.73;;
3733;SDS011;1882;52.256;8.874;2023-12-20T02:12:03;10.43;;;2.80;;
3733;SDS011;1882;52.256;8.874;2023-12-20T02:14:33;9.33;;;2.20;;
3733;SDS011;1882;52.256;8.874;2023-12-20T02:17:07;8.27;;;2.60;;
3733;SDS011;1882;52.256;8.874;2023-12-20T02:19:34;10.53;;;2.90;;
3733;SDS011;1882;52.256;8.874;2023-12-20T02:22:11;8.93;;;2.77;;
3733;SDS011;1882;52.256;8.874;2023-12-20T02:24:38;10.17;;;2.43;;
3733;SDS011;1882;52.256;8.874;2023-12-20T02:27:08;7.60;;;2.80;;
3733;SDS011;1882;52.256;8.874;2023-12-20T02:29:35;8.43;;;3.17;;
3733;SDS011;1882;52.256;8.874;2023-12-20T02:32:04;14.50;;;2.90;;
3733;SDS011;1882;52.256;8.874;2023-12-20T02:34:40;14.07;;;3.00;;
3733;SDS011;1882;52.256;8.874;2023-12-20T02:37:07;8.93;;;3.40;;
3733;SDS011;1882;52.256;8.874;2023-12-20T02:39:38;9.23;;;3.40;;
3733;SDS011;1882;52.256;8.874;2023-12-20T02:42:12;10.83;;;2.97;;
3733;SDS011;1882;52.256;8.874;2023-12-20T02:44:39;11.17;;;3.13;;
3733;SDS011;1882;52.256;8.874;2023-12-20T02:47:11;11.23;;;3.57;;
3733;SDS011;1882;52.256;8.874;2023-12-20T02:49:38;17.20;;;3.30;;
3733;SDS011;1882;52.256;8.874;2023-12-20T02:52:05;12.30;;;3.27;;
3733;SDS011;1882;52.256;8.874;2023-12-20T02:54:42;9.70;;;3.40;;
3733;SDS011;1882;52.256;8.874;2023-12-20T02:57:11;9.13;;;2.97;;
3733;SDS011;1882;52.256;8.874;2023-12-20T02:59:38;8.80;;;3.07;;
3733;SDS011;1882;52.256;8.874;2023-12-20T03:02:15;13.10;;;2.83;;
3733;SDS011;1882;52.256;8.874;2023-12-20T03:04:42;12.90;;;3.40;;
3733;SDS011;1882;52.256;8.874;2023-12-20T03:07:09;13.93;;;3.20;;
3733;SDS011;1882;52.256;8.874;2023-12-20T03:09:38;37.53;;;3.87;;
3733;SDS011;1882;52.256;8.874;2023-12-20T03:12:34;22.20;;;3.50;;
3733;SDS011;1882;52.256;8.874;2023-12-20T03:15:00;9.87;;;2.80;;
3733;SDS011;1882;52.256;8.874;2023-12-20T03:17:27;15.07;;;4.30;;
3733;SDS011;1882;52.256;8.874;2023-12-20T03:19:54;11.70;;;3.63;;
3733;SDS011;1882;52.256;8.874;2023-12-20T03:22:27;11.40;;;3.10;;
3733;SDS011;1882;52.256;8.874;2023-12-20T03:24:54;12.40;;;3.17;;
3733;SDS011;1882;52.256;8.874;2023-12-20T03:27:21;10.53;;;3.10;;
3733;SDS011;1882;52.256;8.874;2023-12-20T03:29:47;11.37;;;3.43;;
3733;SDS011;1882;52.256;8.874;2023-12-20T03:32:17;10.87;;;3.90;;
3733;SDS011;1882;52.256;8.874;2023-12-20T03:34:43;14.40;;;3.40;;
3733;SDS011;1882;52.256;8.874;2023-12-20T03:37:10;7.70;;;3.53;;
3733;SDS011;1882;52.256;8.874;2023-12-20T03:39:37;17.30;;;3.73;;
3733;SDS011;1882;52.256;8.874;2023-12-20T03:42:06;11.70;;;3.80;;
3733;SDS011;1882;52.256;8.874;2023-12-20T03:44:38;15.33;;;3.87;;
3733;SDS011;1882;52.256;8.874;2023-12-20T03:47:07;9.17;;;3.70;;
3733;SDS011;1882;52.256;8.874;2023-12-20T03:49:34;12.23;;;3.90;;
3733;SDS011;1882;52.256;8.874;2023-12-20T03:52:03;17.57;;;4.60;;
3733;SDS011;1882;52.256;8.874;2023-12-20T03:54:30;13.97;;;4.13;;
3733;SDS011;1882;52.256;8.874;2023-12-20T03:56:57;16.93;;;4.03;;
3733;SDS011;1882;52.256;8.874;2023-12-20T03:59:24;14.77;;;4.20;;
3733;SDS011;1882;52.256;8.874;2023-12-20T04:01:51;11.10;;;4.33;;
3733;SDS011;1882;52.256;8.874;2023-12-20T04:04:18;15.77;;;4.37;;
3733;SDS011;1882;52.256;8.874;2023-12-20T04:06:48;13.00;;;4.63;;
3733;SDS011;1882;52.256;8.874;2023-12-20T04:09:15;13.23;;;4.67;;
3733;SDS011;1882;52.256;8.874;2023-12-20T04:11:42;17.10;;;5.03;;
3733;SDS011;1882;52.256;8.874;2023-12-20T04:14:08;14.70;;;3.97;;
3733;SDS011;1882;52.256;8.874;2023-12-20T04:16:36;19.33;;;5.00;;
3733;SDS011;1882;52.256;8.874;2023-12-20T04:19:13;18.00;;;5.90;;
3733;SDS011;1882;52.256;8.874;2023-12-20T04:21:40;17.00;;;5.40;;
3733;SDS011;1882;52.256;8.874;2023-12-20T04:24:09;16.67;;;5.27;;
3733;SDS011;1882;52.256;8.874;2023-12-20T04:26:39;14.40;;;4.63;;
3733;SDS011;1882;52.256;8.874;2023-12-20T04:29:05;16.67;;;5.57;;
3733;SDS011;1882;52.256;8.874;2023-12-20T04:31:32;15.37;;;5.03;;
3733;SDS011;1882;52.256;8.874;2023-12-20T04:33:58;19.27;;;5.40;;
3733;SDS011;1882;52.256;8.874;2023-12-20T04:36:25;19.80;;;5.57;;
3733;SDS011;1882;52.256;8.874;2023-12-20T04:39:01;16.33;;;5.30;;
3733;SDS011;1882;52.256;8.874;2023-12-20T04:41:27;19.07;;;5.10;;
3733;SDS011;1882;52.256;8.874;2023-12-20T04:43:55;14.73;;;5.40;;
3733;SDS011;1882;52.256;8.874;2023-12-20T04:46:24;17.77;;;5.23;;
3733;SDS011;1882;52.256;8.874;2023-12-20T04:48:51;12.50;;;5.37;;
3733;SDS011;1882;52.256;8.874;2023-12-20T04:51:18;19.60;;;5.80;;
3733;SDS011;1882;52.256;8.874;2023-12-20T04:53:44;18.23;;;5.90;;
3733;SDS011;1882;52.256;8.874;2023-12-20T04:56:11;21.97;;;6.97;;
3733;SDS011;1882;52.256;8.874;2023-12-20T04:58:38;19.50;;;6.40;;
3733;SDS011;1882;52.256;8.874;2023-12-20T05:01:05;14.43;;;5.60;;
3733;SDS011;1882;52.256;8.874;2023-12-20T05:03:32;19.67;;;6.50;;
3733;SDS011;1882;52.256;8.874;2023-12-20T05:05:59;14.80;;;5.90;;
3733;SDS011;1882;52.256;8.874;2023-12-20T05:08:26;19.17;;;6.37;;
3733;SDS011;1882;52.256;8.874;2023-12-20T05:10:55;21.90;;;7.30;;
3733;SDS011;1882;52.256;8.874;2023-12-20T05:13:22;22.20;;;7.00;;
3733;SDS011;1882;52.256;8.874;2023-12-20T05:16:03;18.83;;;5.90;;
3733;SDS011;1882;52.256;8.874;2023-12-20T05:18:35;23.53;;;6.47;;
3733;SDS011;1882;52.256;8.874;2023-12-20T05:21:02;21.73;;;6.80;;
3733;SDS011;1882;52.256;8.874;2023-12-20T05:23:29;20.77;;;6.77;;
3733;SDS011;1882;52.256;8.874;2023-12-20T05:25:55;16.53;;;5.97;;
3733;SDS011;1882;52.256;8.874;2023-12-20T05:28:24;16.97;;;5.60;;
3733;SDS011;1882;52.256;8.874;2023-12-20T05:30:52;21.03;;;6.30;;
3733;SDS011;1882;52.256;8.874;2023-12-20T05:33:18;17.20;;;5.17;;
3733;SDS011;1882;52.256;8.874;2023-12-20T05:35:45;20.53;;;5.90;;
3733;SDS011;1882;52.256;8.874;2023-12-20T05:38:12;20.03;;;5.37;;
3733;SDS011;1882;52.256;8.874;2023-12-20T05:40:39;20.67;;;5.70;;
3733;SDS011;1882;52.256;8.874;2023-12-20T05:43:12;21.07;;;5.87;;
3733;SDS011;1882;52.256;8.874;2023-12-20T05:45:39;19.53;;;5.83;;
3733;SDS011;1882;52.256;8.874;2023-12-20T05:48:05;22.77;;;5.70;;
3733;SDS011;1882;52.256;8.874;2023-12-20T05:50:32;20.53;;;6.40;;
3733;SDS011;1882;52.256;8.874;2023-12-20T05:53:01;22.13;;;5.97;;
3733;SDS011;1882;52.256;8.874;2023-12-20T05:55:27;19.07;;;5.40;;
3733;SDS011;1882;52.256;8.874;2023-12-20T05:57:56;13.93;;;4.73;;
3733;SDS011;1882;52.256;8.874;2023-12-20T06:00:36;24.47;;;5.60;;
3733;SDS011;1882;52.256;8.874;2023-12-20T06:03:03;20.67;;;5.30;;
3733;SDS011;1882;52.256;8.874;2023-12-20T06:05:31;24.67;;;5.30;;
3733;SDS011;1882;52.256;8.874;2023-12-20T06:08:10;23.77;;;5.10;;
3733;SDS011;1882;52.256;8.874;2023-12-20T06:10:36;23.03;;;4.67;;
3733;SDS011;1882;52.256;8.874;2023-12-20T06:13:03;16.23;;;5.07;;
3733;SDS011;1882;52.256;8.874;2023-12-20T06:15:34;24.30;;;5.60;;
3733;SDS011;1882;52.256;8.874;2023-12-20T06:18:03;20.50;;;4.60;;
3733;SDS011;1882;52.256;8.874;2023-12-20T06:20:32;18.53;;;4.80;;
3733;SDS011;1882;52.256;8.874;2023-12-20T06:22:59;17.40;;;5.00;;
3733;SDS011;1882;52.256;8.874;2023-12-20T06:25:35;12.17;;;4.30;;
3733;SDS011;1882;52.256;8.874;2023-12-20T06:28:01;14.13;;;4.67;;
3733;SDS011;1882;52.256;8.874;2023-12-20T06:30:28;11.73;;;4.17;;
3733;SDS011;1882;52.256;8.874;2023-12-20T06:33:04;15.70;;;4.47;;
3733;SDS011;1882;52.256;8.874;2023-12-20T06:35:31;14.97;;;5.40;;
3733;SDS011;1882;52.256;8.874;2023-12-20T06:38:01;20.27;;;4.47;;
3733;SDS011;1882;52.256;8.874;2023-12-20T06:40:36;14.30;;;4.83;;
3733;SDS011;1882;52.256;8.874;2023-12-20T06:43:03;16.03;;;4.57;;
3733;SDS011;1882;52.256;8.874;2023-12-20T06:45:41;20.67;;;4.70;;
3733;SDS011;1882;52.256;8.874;2023-12-20T06:48:08;21.13;;;4.87;;
3733;SDS011;1882;52.256;8.874;2023-12-20T06:50:37;17.57;;;4.93;;
3733;SDS011;1882;52.256;8.874;2023-12-20T06:53:10;18.53;;;4.90;;
3733;SDS011;1882;52.256;8.874;2023-12-20T06:55:37;18.83;;;5.57;;
3733;SDS011;1882;52.256;8.874;2023-12-20T06:58:05;25.00;;;5.87;;
3733;SDS011;1882;52.256;8.874;2023-12-20T07:00:31;19.10;;;4.80;;
3733;SDS011;1882;52.256;8.874;2023-12-20T07:02:58;19.60;;;5.87;;
3733;SDS011;1882;52.256;8.874;2023-12-20T07:05:26;13.13;;;4.80;;
3733;SDS011;1882;52.256;8.874;2023-12-20T07:07:53;20.37;;;5.47;;
3733;SDS011;1882;52.256;8.874;2023-12-20T07:10:29;19.13;;;5.33;;
3733;SDS011;1882;52.256;8.874;2023-12-20T07:12:59;20.23;;;6.07;;
3733;SDS011;1882;52.256;8.874;2023-12-20T07:15:28;19.60;;;5.70;;
3733;SDS011;1882;52.256;8.874;2023-12-20T07:17:56;20.00;;;6.17;;
3733;SDS011;1882;52.256;8.874;2023-12-20T07:20:32;20.23;;;5.10;;
3733;SDS011;1882;52.256;8.874;2023-12-20T07:22:59;28.77;;;6.13;;
3733;SDS011;1882;52.256;8.874;2023-12-20T07:25:28;22.43;;;6.07;;
3733;SDS011;1882;52.256;8.874;2023-12-20T07:28:02;26.10;;;6.10;;
3733;SDS011;1882;52.256;8.874;2023-12-20T07:30:29;17.60;;;6.03;;
3733;SDS011;1882;52.256;8.874;2023-12-20T07:32:56;21.10;;;5.63;;
3733;SDS011;1882;52.256;8.874;2023-12-20T07:35:34;21.97;;;6.60;;
3733;SDS011;1882;52.256;8.874;2023-12-20T07:38:01;22.70;;;5.90;;
3733;SDS011;1882;52.256;8.874;2023-12-20T07:40:31;22.80;;;6.70;;
3733;SDS011;1882;52.256;8.874;2023-12-20T07:45:50;11.77;;;5.70;;
3733;SDS011;1882;52.256;8.874;2023-12-20T07:48:16;25.33;;;6.33;;
3733;SDS011;1882;52.256;8.874;2023-12-20T07:50:43;15.13;;;6.07;;
3733;SDS011;1882;52.256;8.874;2023-12-20T07:53:10;22.33;;;6.10;;
3733;SDS011;1882;52.256;8.874;2023-12-20T07:55:37;25.27;;;6.20;;
3733;SDS011;1882;52.256;8.874;2023-12-20T07:58:06;18.80;;;6.20;;
3733;SDS011;1882;52.256;8.874;2023-12-20T08:00:33;22.13;;;5.50;;
3733;SDS011;1882;52.256;8.874;2023-12-20T08:03:00;16.00;;;5.87;;
3733;SDS011;1882;52.256;8.874;2023-12-20T08:05:30;14.50;;;5.50;;
3733;SDS011;1882;52.256;8.874;2023-12-20T08:08:08;22.90;;;6.10;;
3733;SDS011;1882;52.256;8.874;2023-12-20T08:10:35;18.57;;;4.93;;
3733;SDS011;1882;52.256;8.874;2023-12-20T08:13:05;20.77;;;6.23;;
3733;SDS011;1882;52.256;8.874;2023-12-20T08:15:35;15.60;;;5.80;;
3733;SDS011;1882;52.256;8.874;2023-12-20T08:18:01;25.53;;;5.70;;
3733;SDS011;1882;52.256;8.874;2023-12-20T08:20:30;17.23;;;6.17;;
3733;SDS011;1882;52.256;8.874;2023-12-20T08:23:07;20.53;;;6.20;;
3733;SDS011;1882;52.256;8.874;2023-12-20T08:25:34;19.17;;;5.57;;
3733;SDS011;1882;52.256;8.874;2023-12-20T08:28:07;18.50;;;5.53;;
3733;SDS011;1882;52.256;8.874;2023-12-20T08:30:35;14.67;;;6.10;;
3733;SDS011;1882;52.256;8.874;2023-12-20T08:33:03;27.17;;;6.17;;
3733;SDS011;1882;52.256;8.874;2023-12-20T08:35:32;17.10;;;6.30;;
3733;SDS011;1882;52.256;8.874;2023-12-20T08:38:05;15.33;;;5.60;;
3733;SDS011;1882;52.256;8.874;2023-12-20T08:40:35;15.53;;;5.70;;
3733;SDS011;1882;52.256;8.874;2023-12-20T08:43:02;19.43;;;6.00;;
3733;SDS011;1882;52.256;8.874;2023-12-20T08:45:29;18.87;;;5.40;;
3733;SDS011;1882;52.256;8.874;2023-12-20T08:48:06;18.97;;;5.40;;
3733;SDS011;1882;52.256;8.874;2023-12-20T08:50:35;18.77;;;5.23;;
3733;SDS011;1882;52.256;8.874;2023-12-20T08:53:11;18.53;;;5.43;;
3733;SDS011;1882;52.256;8.874;2023-12-20T08:55:38;15.93;;;6.00;;
3733;SDS011;1882;52.256;8.874;2023-12-20T08:58:05;22.77;;;5.47;;
3733;SDS011;1882;52.256;8.874;2023-12-20T09:00:41;25.30;;;5.40;;
3733;SDS011;1882;52.256;8.874;2023-12-20T09:03:07;20.73;;;5.80;;
3733;SDS011;1882;52.256;8.874;2023-12-20T09:05:35;27.33;;;5.70;;
3733;SDS011;1882;52.256;8.874;2023-12-20T09:08:05;20.90;;;6.10;;
3733;SDS011;1882;52.256;8.874;2023-12-20T09:10:31;14.50;;;5.37;;
3733;SDS011;1882;52.256;8.874;2023-12-20T09:12:58;17.60;;;5.20;;
3733;SDS011;1882;52.256;8.874;2023-12-20T09:15:31;23.03;;;5.27;;
3733;SDS011;1882;52.256;8.874;2023-12-20T09:18:02;18.13;;;5.30;;
3733;SDS011;1882;52.256;8.874;2023-12-20T09:20:33;23.43;;;5.63;;
3733;SDS011;1882;52.256;8.874;2023-12-20T09:23:00;10.67;;;4.37;;
3733;SDS011;1882;52.256;8.874;2023-12-20T09:25:36;18.33;;;5.27;;
3733;SDS011;1882;52.256;8.874;2023-12-20T09:28:03;12.60;;;5.10;;
3733;SDS011;1882;52.256;8.874;2023-12-20T09:30:33;20.90;;;5.00;;
3733;SDS011;1882;52.256;8.874;2023-12-20T09:33:02;16.63;;;5.63;;
3733;SDS011;1882;52.256;8.874;2023-12-20T09:35:31;15.03;;;5.57;;
3733;SDS011;1882;52.256;8.874;2023-12-20T09:38:01;20.07;;;5.43;;
3733;SDS011;1882;52.256;8.874;2023-12-20T09:40:38;19.33;;;5.53;;
3733;SDS011;1882;52.256;8.874;2023-12-20T09:43:11;19.70;;;6.00;;
3733;SDS011;1882;52.256;8.874;2023-12-20T09:45:47;23.33;;;5.70;;
3733;SDS011;1882;52.256;8.874;2023-12-20T09:48:16;18.47;;;5.57;;
3733;SDS011;1882;52.256;8.874;2023-12-20T09:50:46;21.93;;;5.20;;
3733;SDS011;1882;52.256;8.874;2023-12-20T09:53:21;18.43;;;5.93;;
3733;SDS011;1882;52.256;8.874;2023-12-20T09:55:50;18.57;;;5.17;;
3733;SDS011;1882;52.256;8.874;2023-12-20T09:58:20;24.50;;;6.00;;
3733;SDS011;1882;52.256;8.874;2023-12-20T10:00:49;18.63;;;5.30;;
3733;SDS011;1882;52.256;8.874;2023-12-20T10:03:17;22.60;;;5.40;;
3733;SDS011;1882;52.256;8.874;2023-12-20T10:05:45;29.27;;;5.73;;
3733;SDS011;1882;52.256;8.874;2023-12-20T10:08:21;19.70;;;5.87;;
3733;SDS011;1882;52.256;8.874;2023-12-20T10:10:48;18.53;;;5.70;;
3733;SDS011;1882;52.256;8.874;2023-12-20T10:13:15;22.53;;;5.80;;
3733;SDS011;1882;52.256;8.874;2023-12-20T10:15:52;17.97;;;6.67;;
3733;SDS011;1882;52.256;8.874;2023-12-20T10:18:19;24.17;;;6.33;;
3733;SDS011;1882;52.256;8.874;2023-12-20T10:20:47;19.80;;;6.20;;
3733;SDS011;1882;52.256;8.874;2023-12-20T10:23:22;21.83;;;7.07;;
3733;SDS011;1882;52.256;8.874;2023-12-20T10:25:58;20.27;;;6.17;;
3733;SDS011;1882;52.256;8.874;2023-12-20T10:28:25;27.27;;;7.33;;
3733;SDS011;1882;52.256;8.874;2023-12-20T10:30:54;21.50;;;6.13;;
3733;SDS011;1882;52.256;8.874;2023-12-20T10:33:25;23.57;;;6.67;;
3733;SDS011;1882;52.256;8.874;2023-12-20T10:35:53;25.13;;;6.10;;
3733;SDS011;1882;52.256;8.874;2023-12-20T10:38:23;20.60;;;6.77;;
3733;SDS011;1882;52.256;8.874;2023-12-20T10:40:51;22.23;;;7.00;;
3733;SDS011;1882;52.256;8.874;2023-12-20T10:43:27;20.90;;;6.03;;
3733;SDS011;1882;52.256;8.874;2023-12-20T10:45:55;26.83;;;6.57;;
3733;SDS011;1882;52.256;8.874;2023-12-20T10:48:23;20.20;;;6.50;;
3733;SDS011;1882;52.256;8.874;2023-12-20T10:50:56;13.23;;;5.27;;
3733;SDS011;1882;52.256;8.874;2023-12-20T10:53:24;22.10;;;6.23;;
3733;SDS011;1882;52.256;8.874;2023-12-20T10:55:52;25.10;;;7.30;;
3733;SDS011;1882;52.256;8.874;2023-12-20T10:58:22;20.60;;;5.57;;
3733;SDS011;1882;52.256;8.874;2023-12-20T11:01:02;17.03;;;5.90;;
3733;SDS011;1882;52.256;8.874;2023-12-20T11:03:32;18.47;;;5.40;;
3733;SDS011;1882;52.256;8.874;2023-12-20T11:06:03;17.60;;;5.50;;
3733;SDS011;1882;52.256;8.874;2023-12-20T11:11:35;17.20;;;5.10;;
3733;SDS011;1882;52.256;8.874;2023-12-20T11:14:17;22.10;;;6.00;;
3733;SDS011;1882;52.256;8.874;2023-12-20T11:16:46;21.07;;;5.33;;
3733;SDS011;1882;52.256;8.874;2023-12-20T11:19:20;20.00;;;4.87;;
3733;SDS011;1882;52.256;8.874;2023-12-20T11:21:47;19.13;;;5.50;;
3733;SDS011;1882;52.256;8.874;2023-12-20T11:24:15;13.80;;;4.90;;
3733;SDS011;1882;52.256;8.874;2023-12-20T11:26:46;20.40;;;4.50;;
3733;SDS011;1882;52.256;8.874;2023-12-20T11:32:02;13.03;;;4.37;;
3733;SDS011;1882;52.256;8.874;2023-12-20T11:34:41;10.47;;;4.40;;
3733;SDS011;1882;52.256;8.874;2023-12-20T11:37:11;12.00;;;3.50;;
3733;SDS011;1882;52.256;8.874;2023-12-20T11:39:42;11.67;;;4.00;;
3733;SDS011;1882;52.256;8.874;2023-12-20T11:42:11;11.90;;;3.53;;
3733;SDS011;1882;52.256;8.874;2023-12-20T11:44:41;11.33;;;3.40;;
3733;SDS011;1882;52.256;8.874;2023-12-20T11:47:13;10.07;;;3.13;;
3733;SDS011;1882;52.256;8.874;2023-12-20T11:49:42;12.27;;;4.13;;
3733;SDS011;1882;52.256;8.874;2023-12-20T11:52:12;14.10;;;3.70;;
3733;SDS011;1882;52.256;8.874;2023-12-20T11:54:43;11.87;;;3.30;;
3733;SDS011;1882;52.256;8.874;2023-12-20T11:57:13;17.13;;;3.97;;
3733;SDS011;1882;52.256;8.874;2023-12-20T11:59:40;2.90;;;1.50;;
3733;SDS011;1882;52.256;8.874;2023-12-20T12:02:15;2.73;;;1.33;;
3733;SDS011;1882;52.256;8.874;2023-12-20T12:04:42;5.60;;;1.40;;
3733;SDS011;1882;52.256;8.874;2023-12-20T12:07:11;4.07;;;1.50;;
3733;SDS011;1882;52.256;8.874;2023-12-20T12:09:38;6.10;;;2.10;;
3733;SDS011;1882;52.256;8.874;2023-12-20T12:12:05;2.70;;;1.40;;
3733;SDS011;1882;52.256;8.874;2023-12-20T12:14:37;4.07;;;1.63;;
3733;SDS011;1882;52.256;8.874;2023-12-20T12:17:04;7.10;;;2.20;;
3733;SDS011;1882;52.256;8.874;2023-12-20T12:19:31;2.03;;;1.33;;
3733;SDS011;1882;52.256;8.874;2023-12-20T12:24:44;4.87;;;1.80;;
3733;SDS011;1882;52.256;8.874;2023-12-20T12:27:15;4.20;;;1.80;;
3733;SDS011;1882;52.256;8.874;2023-12-20T12:30:00;6.30;;;1.70;;
3733;SDS011;1882;52.256;8.874;2023-12-20T12:32:29;3.30;;;1.67;;
3733;SDS011;1882;52.256;8.874;2023-12-20T12:34:56;9.33;;;2.00;;
3733;SDS011;1882;52.256;8.874;2023-12-20T12:37:23;4.03;;;1.30;;
3733;SDS011;1882;52.256;8.874;2023-12-20T12:39:53;3.33;;;1.90;;
3733;SDS011;1882;52.256;8.874;2023-12-20T12:42:21;5.20;;;2.10;;
3733;SDS011;1882;52.256;8.874;2023-12-20T12:44:48;4.93;;;2.13;;
3733;SDS011;1882;52.256;8.874;2023-12-20T12:47:15;6.50;;;2.13;;
3733;SDS011;1882;52.256;8.874;2023-12-20T12:49:41;6.27;;;2.50;;
3733;SDS011;1882;52.256;8.874;2023-12-20T12:52:09;7.53;;;2.57;;
3733;SDS011;1882;52.256;8.874;2023-12-20T12:54:48;4.60;;;2.03;;
3733;SDS011;1882;52.256;8.874;2023-12-20T12:57:15;5.43;;;2.23;;
3733;SDS011;1882;52.256;8.874;2023-12-20T13:00:00;6.80;;;1.80;;
3733;SDS011;1882;52.256;8.874;2023-12-20T13:02:31;6.93;;;2.07;;
3733;SDS011;1882;52.256;8.874;2023-12-20T13:04:58;8.83;;;2.07;;
3733;SDS011;1882;52.256;8.874;2023-12-20T13:07:27;4.60;;;1.87;;
3733;SDS011;1882;52.256;8.874;2023-12-20T13:09:54;5.70;;;2.03;;
3733;SDS011;1882;52.256;8.874;2023-12-20T13:12:23;5.93;;;2.00;;
3733;SDS011;1882;52.256;8.874;2023-12-20T13:14:52;9.20;;;2.20;;
3733;SDS011;1882;52.256;8.874;2023-12-20T13:17:19;4.17;;;1.90;;
3733;SDS011;1882;52.256;8.874;2023-12-20T13:19:46;6.10;;;2.23;;
3733;SDS011;1882;52.256;8.874;2023-12-20T13:22:13;4.43;;;1.90;;
3733;SDS011;1882;52.256;8.874;2023-12-20T13:24:43;6.90;;;2.30;;
3733;SDS011;1882;52.256;8.874;2023-12-20T13:27:13;3.50;;;1.97;;
3733;SDS011;1882;52.256;8.874;2023-12-20T13:29:42;3.93;;;1.97;;
3733;SDS011;1882;52.256;8.874;2023-12-20T13:32:15;10.10;;;2.10;;
3733;SDS011;1882;52.256;8.874;2023-12-20T13:34:41;7.03;;;2.20;;
3733;SDS011;1882;52.256;8.874;2023-12-20T13:37:08;8.97;;;1.80;;
3733;SDS011;1882;52.256;8.874;2023-12-20T13:45:42;4.53;;;1.80;;
3733;SDS011;1882;52.256;8.874;2023-12-20T13:53:26;6.97;;;1.67;;
3733;SDS011;1882;52.256;8.874;2023-12-20T13:57:05;3.93;;;1.50;;
3733;SDS011;1882;52.256;8.874;2023-12-20T14:04:10;4.37;;;1.87;;
3733;SDS011;1882;52.256;8.874;2023-12-20T14:19:50;6.03;;;1.80;;
3733;SDS011;1882;52.256;8.874;2023-12-20T14:22:30;5.07;;;1.97;;
3733;SDS011;1882;52.256;8.874;2023-12-20T14:57:42;4.50;;;2.30;;
3733;SDS011;1882;52.256;8.874;2023-12-20T15:00:09;6.00;;;2.13;;
3733;SDS011;1882;52.256;8.874;2023-12-20T15:02:36;4.63;;;2.03;;
3733;SDS011;1882;52.256;8.874;2023-12-20T15:05:03;10.17;;;2.20;;
3733;SDS011;1882;52.256;8.874;2023-12-20T15:07:41;6.50;;;2.90;;
3733;SDS011;1882;52.256;8.874;2023-12-20T15:10:12;7.23;;;2.50;;
3733;SDS011;1882;52.256;8.874;2023-12-20T15:12:39;5.60;;;2.57;;
3733;SDS011;1882;52.256;8.874;2023-12-20T15:15:08;6.50;;;2.63;;
3733;SDS011;1882;52.256;8.874;2023-12-20T15:17:36;4.23;;;2.10;;
3733;SDS011;1882;52.256;8.874;2023-12-20T15:20:13;9.03;;;3.30;;
3733;SDS011;1882;52.256;8.874;2023-12-20T15:22:41;11.67;;;2.97;;
3733;SDS011;1882;52.256;8.874;2023-12-20T15:25:08;5.70;;;2.67;;
3733;SDS011;1882;52.256;8.874;2023-12-20T15:27:35;7.30;;;2.87;;
3733;SDS011;1882;52.256;8.874;2023-12-20T15:30:11;8.23;;;3.60;;
3733;SDS011;1882;52.256;8.874;2023-12-20T15:32:38;9.00;;;2.73;;
3733;SDS011;1882;52.256;8.874;2023-12-20T15:35:06;7.93;;;2.97;;
3733;SDS011;1882;52.256;8.874;2023-12-20T15:37:47;8.50;;;2.70;;
3733;SDS011;1882;52.256;8.874;2023-12-20T15:40:14;6.73;;;2.83;;
3733;SDS011;1882;52.256;8.874;2023-12-20T15:42:40;7.07;;;2.80;;
3733;SDS011;1882;52.256;8.874;2023-12-20T15:45:11;13.33;;;2.60;;
3733;SDS011;1882;52.256;8.874;2023-12-20T15:47:37;8.07;;;2.50;;
3733;SDS011;1882;52.256;8.874;2023-12-20T15:50:05;9.57;;;3.70;;
3733;SDS011;1882;52.256;8.874;2023-12-20T15:52:33;6.77;;;2.60;;
3733;SDS011;1882;52.256;8.874;2023-12-20T15:55:05;6.47;;;2.30;;
3733;SDS011;1882;52.256;8.874;2023-12-20T15:57:34;8.63;;;2.90;;
3733;SDS011;1882;52.256;8.874;2023-12-20T16:00:17;8.27;;;2.43;;
3733;SDS011;1882;52.256;8.874;2023-12-20T16:02:44;7.20;;;2.40;;
3733;SDS011;1882;52.256;8.874;2023-12-20T16:05:11;5.33;;;2.33;;
3733;SDS011;1882;52.256;8.874;2023-12-20T16:07:40;7.00;;;2.87;;
3733;SDS011;1882;52.256;8.874;2023-12-20T16:10:10;19.27;;;9.13;;
3733;SDS011;1882;52.256;8.874;2023-12-20T16:12:37;20.23;;;7.37;;
3733;SDS011;1882;52.256;8.874;2023-12-20T16:15:05;9.70;;;4.43;;
3733;SDS011;1882;52.256;8.874;2023-12-20T16:17:32;12.80;;;5.50;;
3733;SDS011;1882;52.256;8.874;2023-12-20T16:20:02;21.10;;;9.60;;
3733;SDS011;1882;52.256;8.874;2023-12-20T16:22:29;14.07;;;6.07;;
3733;SDS011;1882;52.256;8.874;2023-12-20T16:24:56;12.00;;;4.40;;
3733;SDS011;1882;52.256;8.874;2023-12-20T16:27:23;8.83;;;4.00;;
3733;SDS011;1882;52.256;8.874;2023-12-20T16:29:59;7.17;;;3.60;;
3733;SDS011;1882;52.256;8.874;2023-12-20T16:32:26;14.93;;;6.77;;